Time;durP1;ratioP1;P1;durP2;ratioP2;P2;SDS_P1;SDS_P2;PMS_P1;PMS_P2;Temp;Humidity;BMP_temperature;BMP_pressure;BME280_temperature;BME280_humidity;BME280_pressure;Samples;Min_cycle;Max_cycle;Signal;HPM_P1;HPM_P2
2021/06/10 00:01:56;;;;;;;0.80;0.80;;;25.40;44.70;;;29.09;29.97;101800.53;5155819;27;20046;-54
2021/06/10 00:04:22;;;;;;;0.95;0.95;;;25.30;44.70;;;29.10;30.26;101794.13;5154847;27;20046;-53
2021/06/10 00:06:48;;;;;;;1.58;1.10;;;25.40;44.80;;;29.09;29.92;101790.59;5155098;27;20038;-54
2021/06/10 00:09:13;;;;;;;0.98;0.98;;;25.40;44.80;;;29.09;30.08;101798.66;5155528;27;20098;-55
2021/06/10 00:11:39;;;;;;;1.10;1.10;;;25.40;44.80;;;29.08;30.21;101790.72;5154931;27;20058;-54
2021/06/10 00:14:05;;;;;;;0.93;0.93;;;25.30;44.80;;;29.10;30.25;101800.41;5154924;27;20054;-52
2021/06/10 00:16:31;;;;;;;1.10;1.00;;;25.40;44.80;;;29.07;30.08;101797.06;5154864;27;20182;-52
2021/06/10 00:18:57;;;;;;;1.10;1.00;;;25.30;44.80;;;29.05;30.32;101791.81;5155215;27;20055;-53
2021/06/10 00:21:24;;;;;;;1.02;1.00;;;25.30;44.80;;;29.06;30.24;101796.22;5136270;27;20073;-54
2021/06/10 00:23:49;;;;;;;0.93;0.90;;;25.30;44.90;;;29.02;30.40;101790.25;5155174;27;20429;-56
2021/06/10 00:26:15;;;;;;;1.00;0.95;;;25.30;44.80;;;29.04;29.99;101790.13;5155163;27;20042;-51
2021/06/10 00:28:41;;;;;;;0.95;0.90;;;25.30;44.90;;;29.04;30.07;101795.50;5154605;27;20361;-53
2021/06/10 00:31:07;;;;;;;1.35;1.25;;;25.30;44.90;;;29.04;30.26;101789.28;5154612;27;20100;-54
2021/06/10 00:33:33;;;;;;;1.20;1.00;;;25.30;45.00;;;29.03;30.11;101791.09;5154937;27;20112;-53
2021/06/10 00:36:01;;;;;;;1.35;1.15;;;25.30;45.00;;;28.98;30.32;101786.06;5154650;27;20046;-52
2021/06/10 00:38:27;;;;;;;1.10;1.00;;;25.30;45.00;;;29.00;30.40;101784.13;5154538;27;20047;-54
2021/06/10 00:40:53;;;;;;;1.00;1.00;;;25.30;45.00;;;28.99;30.43;101782.41;5154717;27;20143;-53
2021/06/10 00:43:19;;;;;;;1.10;1.00;;;25.30;45.00;;;28.98;30.22;101774.47;5154378;27;20094;-50
2021/06/10 00:45:44;;;;;;;1.13;1.13;;;25.20;45.00;;;28.99;30.16;101778.88;5154396;27;20058;-55
2021/06/10 00:48:10;;;;;;;0.90;0.90;;;25.20;45.00;;;28.96;30.44;101773.75;5154643;27;20487;-53
2021/06/10 00:50:43;;;;;;;1.60;1.27;;;25.20;45.00;;;28.94;30.40;101773.00;5154660;27;20054;-54
2021/06/10 00:53:21;;;;;;;1.20;1.10;;;25.20;45.00;;;28.97;30.33;101783.53;5154870;27;20103;-50
2021/06/10 00:55:49;;;;;;;1.20;1.10;;;25.20;45.00;;;28.95;30.53;101774.72;5154091;27;20053;-54
2021/06/10 00:58:14;;;;;;;1.27;1.20;;;25.20;45.00;;;28.95;30.33;101772.00;5117876;27;20077;-52
2021/06/10 01:00:40;;;;;;;0.85;0.85;;;25.20;45.00;;;28.91;30.19;101768.72;5154488;27;20097;-53
2021/06/10 01:03:06;;;;;;;1.10;1.10;;;25.20;45.10;;;28.90;30.30;101769.72;5153655;27;20137;-52
2021/06/10 01:05:32;;;;;;;0.90;0.90;;;25.20;45.10;;;28.93;30.32;101773.97;5154188;27;20054;-55
2021/06/10 01:08:43;;;;;;;1.25;1.20;;;25.20;45.10;;;28.90;30.39;101767.03;5135713;27;20133;-56
2021/06/10 01:12:05;;;;;;;1.23;1.10;;;25.20;45.10;;;28.92;30.41;101772.25;5123457;27;20134;-53
2021/06/10 01:14:43;;;;;;;2.25;1.10;;;25.20;45.20;;;28.85;30.36;101763.00;5135527;27;20051;-56
2021/06/10 01:17:11;;;;;;;0.90;0.90;;;25.20;45.20;;;28.86;30.13;101768.25;5154792;27;20038;-55
2021/06/10 01:19:40;;;;;;;1.00;1.00;;;25.20;45.20;;;28.87;30.57;101764.59;5135548;27;20054;-53
2021/06/10 01:22:12;;;;;;;1.55;0.93;;;25.10;45.20;;;28.83;30.30;101760.41;5153973;27;20103;-53
2021/06/10 01:25:33;;;;;;;1.00;1.00;;;25.10;45.20;;;28.85;30.21;101761.13;5135800;27;20069;-53
2021/06/10 01:28:20;;;;;;;0.80;0.80;;;25.10;45.30;;;28.80;30.68;101764.22;5133781;27;20051;-54
2021/06/10 01:30:55;;;;;;;1.88;1.10;;;25.10;45.30;;;28.82;30.30;101769.50;5133955;27;20054;-55
2021/06/10 01:33:25;;;;;;;1.05;1.00;;;25.10;45.30;;;28.80;30.46;101764.22;5154283;27;20095;-52
2021/06/10 01:35:57;;;;;;;0.90;0.90;;;25.10;45.40;;;28.78;30.35;101766.16;5153912;27;20061;-53
2021/06/10 01:38:24;;;;;;;1.30;1.20;;;25.00;45.30;;;28.75;30.61;101762.88;5134365;27;20054;-55
2021/06/10 01:40:51;;;;;;;1.13;1.10;;;25.00;45.30;;;28.73;30.73;101754.94;5153623;27;20043;-55
2021/06/10 01:43:19;;;;;;;0.95;0.95;;;25.00;45.40;;;28.71;30.53;101753.34;5133236;27;20058;-54
2021/06/10 01:45:50;;;;;;;1.10;1.00;;;25.00;45.40;;;28.71;30.68;101754.19;5117867;27;20104;-52
2021/06/10 01:48:19;;;;;;;1.42;1.33;;;25.00;45.40;;;28.72;30.58;101753.25;5135045;27;20080;-55
2021/06/10 01:50:52;;;;;;;1.23;1.13;;;25.00;45.50;;;28.70;30.82;101747.13;5153532;27;20102;-53
2021/06/10 01:53:19;;;;;;;1.23;1.13;;;25.00;45.50;;;28.74;30.43;101756.66;5134986;27;20050;-53
2021/06/10 01:55:47;;;;;;;1.08;1.08;;;25.00;45.50;;;28.69;30.83;101731.09;5153268;27;20404;-50
2021/06/10 01:58:16;;;;;;;1.00;1.00;;;25.00;45.50;;;28.72;30.67;101744.28;5133738;27;20048;-55
2021/06/10 02:00:43;;;;;;;1.10;1.02;;;25.00;45.50;;;28.71;30.75;101739.91;5133767;27;20488;-56
2021/06/10 02:03:10;;;;;;;1.00;1.00;;;25.00;46.10;;;28.68;30.71;101741.00;5153652;27;20180;-54
2021/06/10 02:05:38;;;;;;;1.23;1.15;;;25.00;45.60;;;28.65;30.91;101749.31;5153252;27;20069;-55
2021/06/10 02:08:12;;;;;;;1.50;1.10;;;24.90;45.60;;;28.66;30.57;101739.44;5134325;27;20085;-52
2021/06/10 02:10:42;;;;;;;1.40;1.30;;;24.90;45.60;;;28.61;30.89;101729.03;5153664;27;20491;-53
2021/06/10 02:13:08;;;;;;;1.30;1.20;;;24.90;45.70;;;28.62;30.63;101720.84;5134134;27;20054;-50
2021/06/10 02:15:35;;;;;;;1.27;1.17;;;24.90;45.70;;;28.59;30.75;101721.06;5136695;27;20058;-53
2021/06/10 02:18:02;;;;;;;1.30;1.08;;;24.90;45.70;;;28.63;30.71;101724.38;5136482;27;20078;-53
2021/06/10 02:20:28;;;;;;;1.23;1.10;;;24.90;45.70;;;28.61;30.73;101731.72;5104046;27;20085;-54
2021/06/10 02:22:54;;;;;;;1.52;1.20;;;24.90;45.70;;;28.60;30.80;101720.09;5157045;27;20491;-56
2021/06/10 02:25:20;;;;;;;1.35;1.25;;;24.90;45.70;;;28.59;30.98;101729.16;5156882;27;20043;-55
2021/06/10 02:27:46;;;;;;;1.30;1.20;;;24.80;45.70;;;28.58;30.70;101730.13;5156927;27;20055;-53
2021/06/10 02:30:14;;;;;;;1.40;1.25;;;24.80;45.70;;;28.55;30.87;101729.47;5156693;27;20059;-54
2021/06/10 02:32:40;;;;;;;1.00;1.00;;;24.80;45.80;;;28.54;30.81;101733.16;5156568;27;20111;-52
2021/06/10 02:35:09;;;;;;;1.25;1.15;;;24.80;45.80;;;28.55;31.04;101729.47;5156582;27;20483;-51
2021/06/10 02:37:38;;;;;;;1.20;1.10;;;24.80;45.80;;;28.52;30.84;101733.28;5156545;27;20049;-53
2021/06/10 02:40:08;;;;;;;1.00;1.00;;;24.80;45.80;;;28.52;30.74;101727.03;5136138;27;20075;-53
2021/06/10 02:42:36;;;;;;;1.20;1.10;;;24.80;45.90;;;28.51;30.68;101725.34;5138650;27;20050;-51
2021/06/10 02:45:05;;;;;;;1.00;1.00;;;24.80;45.90;;;28.52;30.78;101733.28;5135964;27;20051;-54
2021/06/10 02:47:32;;;;;;;1.00;1.00;;;24.80;45.90;;;28.51;31.30;101725.34;5156609;27;20046;-54
2021/06/10 02:49:59;;;;;;;1.35;1.25;;;24.70;45.90;;;28.45;31.08;101723.97;5137340;27;20047;-52
2021/06/10 02:52:27;;;;;;;1.30;1.20;;;24.70;46.00;;;28.49;31.07;101722.78;5156256;27;20095;-51
2021/06/10 02:54:54;;;;;;;1.02;1.02;;;24.70;46.00;;;28.48;31.06;101721.06;5138165;27;20042;-50
2021/06/10 02:57:21;;;;;;;1.00;1.00;;;24.70;46.10;;;28.46;31.08;101712.25;5156240;27;20046;-52
2021/06/10 02:59:48;;;;;;;1.00;1.00;;;24.70;46.00;;;28.48;31.16;101729.13;5137398;27;20070;-53
2021/06/10 03:02:15;;;;;;;1.13;1.13;;;24.70;46.00;;;28.48;31.34;101721.06;5156217;27;20039;-53
2021/06/10 03:04:45;;;;;;;1.73;1.20;;;24.70;46.00;;;28.45;30.92;101715.91;5156050;27;20089;-52
2021/06/10 03:07:19;;;;;;;1.33;1.23;;;24.80;46.00;;;28.47;30.94;101722.06;5156128;27;20071;-53
2021/06/10 03:09:46;;;;;;;1.10;1.00;;;24.80;46.00;;;28.48;30.91;101721.06;5138073;27;20089;-52
2021/06/10 03:12:18;;;;;;;1.23;1.13;;;24.70;45.90;;;28.48;31.22;101722.91;5137384;27;20074;-51
2021/06/10 03:14:44;;;;;;;1.20;1.10;;;24.80;46.00;;;28.51;30.89;101725.34;5156250;27;20046;-52
2021/06/10 03:17:15;;;;;;;1.02;1.02;;;24.80;45.90;;;28.51;30.98;101723.50;5156020;27;20083;-53
2021/06/10 03:19:42;;;;;;;1.30;1.20;;;24.80;45.90;;;28.55;30.96;101726.78;5137443;27;20043;-55
2021/06/10 03:22:08;;;;;;;1.20;1.10;;;24.80;45.90;;;28.59;30.79;101731.00;5137340;27;20039;-48
2021/06/10 03:24:34;;;;;;;1.80;1.20;;;24.80;45.80;;;28.60;30.85;101730.88;5119756;27;20055;-52
2021/06/10 03:27:02;;;;;;;1.25;1.15;;;24.90;45.80;;;28.61;30.72;101729.88;5155723;27;20559;-52
2021/06/10 03:29:28;;;;;;;1.20;1.10;;;24.90;45.80;;;28.64;30.91;101728.78;5137110;27;20404;-54
2021/06/10 03:31:54;;;;;;;1.38;1.30;;;24.90;45.80;;;28.67;30.68;101725.84;5155670;27;20043;-51
2021/06/10 03:34:21;;;;;;;1.15;1.05;;;24.90;45.70;;;28.69;30.92;101729.25;5136940;27;20096;-51
2021/06/10 03:36:47;;;;;;;1.35;1.25;;;24.90;45.70;;;28.70;30.92;101719.34;5136167;27;20051;-52
2021/06/10 03:39:15;;;;;;;1.35;1.25;;;24.90;45.70;;;28.72;30.69;101723.63;5155474;27;20510;-53
2021/06/10 03:41:42;;;;;;;1.10;1.10;;;25.00;45.70;;;28.71;30.79;101713.84;5135357;27;20053;-52
2021/06/10 03:44:08;;;;;;;1.00;1.00;;;25.00;45.60;;;28.76;30.75;101722.38;5137285;27;20498;-50
2021/06/10 03:46:35;;;;;;;1.15;1.05;;;25.00;45.60;;;28.78;30.41;101719.56;5155478;27;20427;-52
2021/06/10 03:49:02;;;;;;;1.15;1.10;;;25.00;45.70;;;28.80;30.58;101720.28;5137438;27;20080;-48
2021/06/10 03:51:28;;;;;;;1.23;1.13;;;25.00;45.50;;;28.84;30.59;101729.84;5136733;27;20043;-53
2021/06/10 03:53:55;;;;;;;0.93;0.93;;;25.10;45.50;;;28.86;30.58;101722.50;5155177;27;20051;-50
2021/06/10 03:56:21;;;;;;;1.50;1.10;;;25.10;45.50;;;28.90;30.48;101729.34;5155223;27;20047;-51
2021/06/10 03:58:47;;;;;;;1.17;1.10;;;25.10;45.30;;;28.94;30.61;101721.88;5155265;27;20046;-50
2021/06/10 04:01:12;;;;;;;1.33;1.23;;;25.10;45.30;;;28.97;30.69;101725.16;5155246;27;20081;-53
2021/06/10 04:03:39;;;;;;;1.08;1.08;;;25.20;45.30;;;28.99;30.57;101717.78;5154891;27;20095;-54
2021/06/10 04:06:05;;;;;;;1.20;1.10;;;25.20;45.30;;;29.01;30.59;101723.06;5155802;27;20046;-54
2021/06/10 04:08:32;;;;;;;1.20;1.10;;;25.20;45.20;;;29.03;30.30;101718.41;5137014;27;20054;-55
2021/06/10 04:10:58;;;;;;;1.30;1.23;;;25.30;45.20;;;29.07;30.13;101722.56;5155366;27;20483;-51
2021/06/10 04:13:23;;;;;;;1.80;1.23;;;25.30;45.10;;;29.06;30.20;101714.59;5135599;27;20103;-49
2021/06/10 04:15:49;;;;;;;1.38;1.27;;;25.30;45.00;;;29.11;30.36;101718.59;5154640;27;20071;-53
2021/06/10 04:18:18;;;;;;;1.00;0.98;;;25.30;45.00;;;29.16;30.09;101721.75;5154787;27;20058;-53
2021/06/10 04:20:46;;;;;;;1.25;1.15;;;25.40;45.00;;;29.17;30.28;101714.59;5154694;27;20046;-53
2021/06/10 04:23:12;;;;;;;1.27;1.17;;;25.40;45.00;;;29.19;30.12;101724.25;5154760;27;20513;-49
2021/06/10 04:25:38;;;;;;;1.15;1.10;;;25.40;45.00;;;29.22;30.27;101723.16;5134974;27;20142;-52
2021/06/10 04:28:04;;;;;;;1.38;1.27;;;25.40;44.90;;;29.21;29.91;101728.66;5154613;27;20103;-53
2021/06/10 04:30:30;;;;;;;1.30;1.20;;;25.40;44.90;;;29.19;30.10;101726.09;5154790;27;20514;-52
2021/06/10 04:32:56;;;;;;;1.30;1.20;;;25.40;44.90;;;29.24;30.20;101728.41;5136614;27;20039;-50
2021/06/10 04:35:22;;;;;;;1.00;1.00;;;25.40;45.00;;;29.24;29.97;101731.94;5155115;27;20047;-53
2021/06/10 04:37:47;;;;;;;0.90;0.90;;;25.40;44.90;;;29.27;29.97;101723.59;5154177;27;20091;-50
2021/06/10 04:40:15;;;;;;;1.17;1.08;;;25.40;44.90;;;29.29;29.96;101726.19;5154521;27;20046;-51
2021/06/10 04:42:40;;;;;;;1.10;1.10;;;25.50;44.90;;;29.31;30.13;101726.91;5154617;27;20046;-52
2021/06/10 04:45:07;;;;;;;1.20;1.10;;;25.50;44.80;;;29.33;29.78;101739.22;5154575;27;20042;-53
2021/06/10 04:47:33;;;;;;;1.48;1.38;;;25.50;44.80;;;29.34;30.02;101732.88;5154401;27;20046;-53
2021/06/10 04:49:58;;;;;;;1.05;1.02;;;25.50;44.80;;;29.33;29.95;101741.94;5154366;27;20054;-52
2021/06/10 04:52:24;;;;;;;1.00;1.00;;;25.50;44.80;;;29.36;29.96;101733.59;5154413;27;20054;-48
2021/06/10 04:54:50;;;;;;;1.20;1.13;;;25.50;44.70;;;29.32;30.05;101731.28;5153957;27;20507;-53
2021/06/10 04:57:16;;;;;;;1.40;1.30;;;25.50;44.70;;;29.39;29.82;101737.88;5154283;27;20047;-48
2021/06/10 04:59:41;;;;;;;1.30;1.20;;;25.50;44.70;;;29.40;30.00;101738.72;5154267;27;20088;-52
2021/06/10 05:02:07;;;;;;;1.15;1.05;;;25.60;44.70;;;29.43;29.90;101747.41;5154567;27;20050;-54
2021/06/10 05:04:33;;;;;;;1.88;1.42;;;25.60;44.70;;;29.42;29.73;101740.31;5154005;27;20059;-52
2021/06/10 05:06:59;;;;;;;1.33;1.23;;;25.60;44.70;;;29.46;30.02;101740.91;5154227;27;20067;-53
2021/06/10 05:09:24;;;;;;;1.30;1.20;;;25.60;45.20;;;29.48;29.77;101741.63;5154422;27;20157;-52
2021/06/10 05:11:50;;;;;;;1.10;1.00;;;25.60;44.50;;;29.48;29.77;101731.69;5154113;27;20541;-50
2021/06/10 05:14:16;;;;;;;1.40;1.30;;;25.70;44.60;;;29.55;29.88;101742.81;5153878;27;20046;-49
2021/06/10 05:16:44;;;;;;;1.10;1.10;;;25.70;44.50;;;29.56;29.70;101739.97;5154476;27;20050;-51
2021/06/10 05:19:10;;;;;;;1.38;1.27;;;25.70;44.40;;;29.58;29.60;101736.31;5153954;27;20091;-50
2021/06/10 05:21:36;;;;;;;1.30;1.20;;;25.80;44.50;;;29.61;29.61;101728.81;5153990;27;20047;-55
2021/06/10 05:24:02;;;;;;;1.40;1.30;;;25.80;44.30;;;29.66;29.44;101725.72;5154123;27;20051;-52
2021/06/10 05:26:27;;;;;;;1.83;1.42;;;25.80;44.30;;;29.70;29.62;101728.03;5154031;27;20443;-51
2021/06/10 05:28:53;;;;;;;1.58;1.35;;;25.90;44.30;;;29.74;29.61;101729.47;5153660;27;20042;-50
2021/06/10 05:31:20;;;;;;;1.23;1.20;;;25.90;44.20;;;29.79;29.23;101728.22;5135169;27;20047;-49
2021/06/10 05:33:46;;;;;;;1.30;1.20;;;25.90;44.10;;;29.84;29.24;101728.72;5154314;27;20039;-52
2021/06/10 05:36:11;;;;;;;1.42;1.33;;;25.90;44.10;;;29.84;29.47;101726.88;5153747;27;20039;-53
2021/06/10 05:38:37;;;;;;;1.30;1.20;;;25.90;44.00;;;29.89;29.29;101730.00;5153929;27;20043;-49
2021/06/10 05:41:03;;;;;;;1.10;1.10;;;26.00;44.10;;;29.91;29.40;101736.13;5153779;27;20039;-53
2021/06/10 05:43:29;;;;;;;1.25;1.20;;;26.00;44.00;;;29.95;29.13;101730.47;5153746;27;20043;-53
2021/06/10 05:45:55;;;;;;;1.00;1.00;;;26.10;44.10;;;29.96;29.24;101719.56;5134192;27;20384;-50
2021/06/10 05:48:21;;;;;;;1.05;1.05;;;26.00;44.00;;;29.97;29.18;101720.41;5153930;27;20104;-54
2021/06/10 05:50:47;;;;;;;1.30;1.20;;;26.00;43.90;;;30.00;29.19;101720.97;5157113;27;20130;-50
2021/06/10 05:53:17;;;;;;;1.08;1.08;;;26.10;43.90;;;30.04;28.97;101727.81;5138429;27;20093;-52
2021/06/10 05:55:45;;;;;;;1.40;1.30;;;26.10;43.90;;;30.08;29.16;101733.78;5157004;27;20133;-53
2021/06/10 05:58:11;;;;;;;1.17;1.17;;;26.10;43.80;;;30.13;29.00;101728.00;5156924;27;20060;-49
2021/06/10 06:00:37;;;;;;;1.20;1.10;;;26.20;43.80;;;30.14;28.79;101732.41;5137130;27;20047;-52
2021/06/10 06:03:04;;;;;;;1.15;1.05;;;26.20;43.80;;;30.19;29.07;101725.63;5157083;27;20035;-55
2021/06/10 06:05:31;;;;;;;1.30;1.20;;;26.30;43.70;;;30.25;28.90;101725.06;5157056;27;20396;-50
2021/06/10 06:07:56;;;;;;;1.02;1.02;;;26.30;43.60;;;30.30;28.92;101720.13;5137468;27;20047;-51
2021/06/10 06:10:22;;;;;;;1.30;1.20;;;26.30;43.60;;;30.33;28.74;101721.69;5156977;27;20053;-49
2021/06/10 06:12:51;;;;;;;1.30;1.20;;;26.40;43.50;;;30.37;28.70;101725.00;5156502;27;20183;-51
2021/06/10 06:15:18;;;;;;;1.15;1.15;;;26.40;43.40;;;30.42;28.72;101723.63;5156555;27;20092;-51
2021/06/10 06:17:46;;;;;;;1.30;1.20;;;26.50;43.30;;;30.47;28.51;101729.47;5157331;27;20126;-52
2021/06/10 06:20:13;;;;;;;1.08;1.08;;;26.50;43.30;;;30.51;28.63;101721.09;5156659;27;20046;-54
2021/06/10 06:22:42;;;;;;;1.33;1.23;;;26.60;43.20;;;30.59;28.44;101723.91;5157049;27;20039;-53
2021/06/10 06:25:12;;;;;;;1.38;1.25;;;26.60;43.00;;;30.61;28.48;101728.22;5156707;27;20111;-51
2021/06/10 06:27:40;;;;;;;1.30;1.20;;;26.70;43.00;;;30.71;28.26;101738.19;5156746;27;20068;-53
2021/06/10 06:30:09;;;;;;;1.38;1.27;;;26.70;42.90;;;30.71;28.28;101728.22;5156984;27;20049;-51
2021/06/10 06:32:36;;;;;;;1.23;1.13;;;26.80;42.90;;;30.77;28.25;101737.59;5137905;27;20096;-51
2021/06/10 06:35:07;;;;;;;1.00;1.00;;;26.80;42.80;;;30.79;28.31;101738.31;5138533;27;20058;-53
2021/06/10 06:37:34;;;;;;;1.10;1.10;;;26.90;42.70;;;30.82;28.13;101738.03;5156739;27;20065;-55
2021/06/10 06:40:00;;;;;;;2.60;1.10;;;26.90;42.70;;;30.85;28.10;101741.31;5137894;27;20138;-51
2021/06/10 06:42:26;;;;;;;1.23;1.20;;;26.90;42.60;;;30.89;27.98;101744.63;5156400;27;20039;-49
2021/06/10 06:44:52;;;;;;;1.30;1.20;;;27.00;42.60;;;30.93;28.16;101750.59;5156745;27;20099;-54
2021/06/10 06:47:18;;;;;;;1.35;1.25;;;27.00;42.40;;;30.97;27.94;101749.31;5156208;27;20093;-51
2021/06/10 06:49:44;;;;;;;1.30;1.20;;;27.10;42.30;;;31.02;27.91;101755.16;5156868;27;20552;-51
2021/06/10 06:52:10;;;;;;;1.20;1.20;;;27.10;42.20;;;31.08;27.84;101748.34;5156301;27;20054;-51
2021/06/10 06:54:37;;;;;;;1.30;1.20;;;27.20;42.10;;;31.14;27.67;101750.47;5156154;27;20095;-53
2021/06/10 06:57:04;;;;;;;1.25;1.15;;;27.30;42.10;;;31.20;27.70;101752.63;5156598;27;20042;-48
2021/06/10 06:59:30;;;;;;;1.40;1.30;;;27.40;42.00;;;31.21;27.66;101747.06;5155560;27;20043;-53
2021/06/10 07:01:56;;;;;;;1.33;1.23;;;27.40;42.00;;;31.28;27.42;101749.22;5156284;27;20434;-52
2021/06/10 07:04:22;;;;;;;1.02;1.02;;;27.40;41.80;;;31.35;27.39;101755.75;5155860;27;20045;-55
2021/06/10 07:06:48;;;;;;;1.65;1.20;;;27.50;41.80;;;31.40;27.44;101758.88;5156314;27;20438;-51
2021/06/10 07:09:14;;;;;;;1.55;1.15;;;27.50;41.70;;;31.42;27.34;101756.88;5156574;27;20046;-51
2021/06/10 07:11:40;;;;;;;1.45;1.35;;;27.60;41.70;;;31.50;27.24;101762.41;5151775;27;20526;-54
2021/06/10 07:14:06;;;;;;;1.23;1.13;;;27.60;41.60;;;31.53;27.30;101766.72;5155843;27;20043;-49
2021/06/10 07:16:32;;;;;;;1.20;1.10;;;27.70;41.50;;;31.56;27.25;101761.03;5137304;27;20058;-51
2021/06/10 07:18:58;;;;;;;1.05;1.05;;;27.70;41.40;;;31.61;27.01;101772.28;5135558;27;20091;-55
2021/06/10 07:21:24;;;;;;;1.42;1.33;;;27.80;41.40;;;31.64;27.19;101780.06;5155769;27;20491;-50
2021/06/10 07:23:50;;;;;;;1.27;1.17;;;27.80;41.40;;;31.65;27.07;101779.09;5155749;27;20043;-55
2021/06/10 07:26:15;;;;;;;1.35;1.25;;;27.80;41.40;;;31.67;27.04;101781.66;5156108;27;20213;-53
2021/06/10 07:28:41;;;;;;;0.90;0.90;;;27.70;41.30;;;31.65;27.07;101780.94;5155634;27;20038;-50
2021/06/10 07:31:07;;;;;;;1.38;1.27;;;27.70;41.30;;;31.65;27.06;101779.09;5156051;27;20137;-51
2021/06/10 07:33:33;;;;;;;1.20;1.10;;;27.70;41.30;;;31.66;27.06;101777.22;5155584;27;20039;-51
2021/06/10 07:35:58;;;;;;;1.30;1.20;;;27.70;41.30;;;31.64;27.07;101776.53;5155355;27;20054;-54
2021/06/10 07:38:24;;;;;;;1.10;1.10;;;27.80;41.40;;;31.69;27.04;101782.34;5136199;27;20042;-55
2021/06/10 07:40:50;;;;;;;1.13;1.02;;;27.80;41.30;;;31.70;27.06;101784.91;5155603;27;20046;-50
2021/06/10 07:43:16;;;;;;;1.10;1.05;;;27.80;41.30;;;31.72;26.80;101782.91;5155357;27;20047;-51
2021/06/10 07:45:42;;;;;;;1.20;1.10;;;27.80;41.20;;;31.73;26.93;101779.22;5155144;27;20050;-54
2021/06/10 07:48:08;;;;;;;1.45;1.35;;;27.80;41.20;;;31.74;26.94;101785.47;5155268;27;20089;-51
2021/06/10 07:50:35;;;;;;;1.30;1.20;;;27.90;41.20;;;31.75;27.20;101792.59;5155312;27;20099;-52
2021/06/10 07:53:02;;;;;;;1.15;1.13;;;27.90;41.20;;;31.76;26.95;101783.50;5155312;27;20039;-51
2021/06/10 07:55:27;;;;;;;1.40;1.30;;;27.90;41.10;;;31.81;26.76;101788.44;5155149;27;20042;-54
2021/06/10 07:57:55;;;;;;;1.20;1.10;;;28.00;41.10;;;31.83;26.85;101784.63;5155197;27;20488;-51
2021/06/10 08:00:21;;;;;;;1.10;1.10;;;28.00;41.10;;;31.86;26.92;101786.16;5155215;27;20062;-55
2021/06/10 08:02:47;;;;;;;1.25;1.15;;;28.00;41.00;;;31.87;26.75;101779.78;5155350;27;20078;-55
2021/06/10 08:05:14;;;;;;;1.20;1.10;;;28.00;40.90;;;31.89;26.69;101789.47;5154977;27;20039;-55
2021/06/10 08:07:44;;;;;;;1.30;1.20;;;28.10;41.00;;;31.93;26.56;101785.44;5155161;27;20061;-51
2021/06/10 08:10:13;;;;;;;1.17;1.00;;;28.10;40.90;;;31.93;26.80;101781.91;5154938;27;20050;-52
2021/06/10 08:12:39;;;;;;;1.50;1.40;;;28.10;40.90;;;31.93;26.79;101785.44;5153847;27;20046;-53
2021/06/10 08:15:06;;;;;;;1.00;1.00;;;28.10;40.90;;;31.93;26.74;101785.44;5154750;27;20483;-53
2021/06/10 08:17:35;;;;;;;1.88;1.23;;;28.10;40.90;;;31.98;26.67;101789.56;5135767;27;20082;-55
2021/06/10 08:20:03;;;;;;;1.20;1.10;;;28.10;40.80;;;31.95;26.43;101786.16;5154617;27;20073;-53
2021/06/10 08:22:29;;;;;;;1.38;1.27;;;28.10;40.80;;;31.99;26.46;101792.13;5155029;27;20396;-51
2021/06/10 08:24:55;;;;;;;1.10;1.10;;;28.10;40.80;;;32.00;26.54;101795.69;5155085;27;20047;-55
2021/06/10 08:27:20;;;;;;;1.40;1.30;;;28.10;40.80;;;32.00;26.32;101796.53;5136017;27;20042;-56
2021/06/10 08:29:46;;;;;;;1.48;1.13;;;28.10;40.80;;;32.01;26.73;101800.09;5154574;27;20400;-55
2021/06/10 08:32:12;;;;;;;1.35;1.25;;;28.10;40.80;;;31.97;26.43;101788.72;5155082;27;20444;-50
2021/06/10 08:34:38;;;;;;;1.50;1.38;;;28.20;40.80;;;32.02;26.52;101799.09;5154589;27;20544;-54
2021/06/10 08:37:04;;;;;;;1.20;1.10;;;28.20;40.70;;;32.03;26.37;101796.25;5154530;27;20072;-53
2021/06/10 08:39:30;;;;;;;1.20;1.10;;;28.20;40.70;;;32.03;26.53;101804.38;5154479;27;20047;-54
2021/06/10 08:41:56;;;;;;;1.10;1.10;;;28.20;40.70;;;32.04;26.44;101791.69;5154554;27;20081;-52
2021/06/10 08:44:24;;;;;;;1.00;1.00;;;28.30;40.70;;;32.05;26.30;101790.69;5154992;27;20070;-52
2021/06/10 08:46:50;;;;;;;1.85;1.15;;;28.20;40.60;;;32.05;26.61;101796.94;5154424;27;20054;-51
2021/06/10 08:49:17;;;;;;;1.40;1.30;;;28.20;40.60;;;32.05;26.58;101799.66;5154293;27;20038;-52
2021/06/10 08:51:42;;;;;;;1.35;1.10;;;28.20;40.60;;;31.99;26.51;101789.41;5135876;27;20530;-53
2021/06/10 08:54:08;;;;;;;1.17;1.10;;;28.20;40.70;;;32.03;26.26;101790.00;5154522;27;20078;-54
2021/06/10 08:56:34;;;;;;;1.10;1.10;;;28.20;40.60;;;32.02;26.63;101794.53;5154189;27;20492;-55
2021/06/10 08:59:00;;;;;;;0.98;0.98;;;28.20;40.70;;;31.95;26.73;101788.84;5154287;27;20058;-53
2021/06/10 09:01:27;;;;;;;1.45;1.35;;;28.20;40.70;;;31.99;26.98;101791.28;5154228;27;20058;-52
2021/06/10 09:03:54;;;;;;;1.27;1.17;;;28.20;40.70;;;31.98;26.40;101784.13;5154159;27;20087;-53
2021/06/10 09:06:20;;;;;;;1.40;1.30;;;28.20;40.70;;;31.95;26.57;101785.31;5154234;27;20138;-50
2021/06/10 09:08:49;;;;;;;1.27;1.17;;;28.20;40.70;;;31.92;26.69;101793.72;5154243;27;20054;-54
2021/06/10 09:11:24;;;;;;;1.05;1.05;;;28.10;40.70;;;31.89;26.70;101794.00;5135546;27;20057;-50
2021/06/10 09:13:57;;;;;;;1.40;1.30;;;28.20;40.80;;;31.83;26.73;101783.78;5154070;27;20407;-52
2021/06/10 09:16:33;;;;;;;1.40;1.27;;;28.10;40.80;;;31.83;26.96;101789.19;5135868;27;20091;-53
2021/06/10 09:19:08;;;;;;;1.10;1.10;;;28.20;40.80;;;31.82;26.67;101784.75;5131837;27;20142;-52
2021/06/10 09:21:57;;;;;;;1.23;1.13;;;28.10;40.70;;;31.81;26.71;101778.50;5154293;27;20042;-55
2021/06/10 09:24:35;;;;;;;1.55;1.35;;;28.10;40.70;;;31.81;26.94;101783.91;5156980;27;20046;-53
2021/06/10 09:27:14;;;;;;;1.40;1.30;;;28.10;40.80;;;31.79;26.99;101775.06;5122139;27;20129;-55
2021/06/10 09:29:52;;;;;;;1.40;1.10;;;28.10;40.80;;;31.79;27.01;101785.03;5157123;27;20051;-53
2021/06/10 09:32:20;;;;;;;1.00;1.00;;;28.10;40.80;;;31.80;26.93;101784.06;5157918;27;20049;-54
2021/06/10 09:34:57;;;;;;;1.23;1.13;;;28.10;40.80;;;31.74;27.05;101778.25;5153177;27;20046;-53
2021/06/10 09:37:43;;;;;;;1.60;1.30;;;28.10;40.80;;;31.73;26.75;101779.22;5157424;27;20046;-50
2021/06/10 09:40:18;;;;;;;1.20;1.10;;;28.10;40.80;;;31.73;27.11;101787.34;5155668;27;20038;-54
2021/06/10 09:42:47;;;;;;;2.50;1.27;;;28.10;40.80;;;31.72;27.08;101772.09;5157896;27;20045;-52
2021/06/10 09:45:19;;;;;;;1.00;1.00;;;28.10;40.80;;;31.72;27.15;101777.50;5157319;27;20047;-52
2021/06/10 09:47:52;;;;;;;1.95;1.20;;;28.10;40.80;;;31.72;27.09;101768.53;5157167;27;20046;-54
2021/06/10 09:50:42;;;;;;;1.10;1.10;;;28.10;40.80;;;31.71;26.91;101770.41;5157611;27;20134;-55
2021/06/10 09:53:17;;;;;;;2.17;1.25;;;28.10;40.80;;;31.71;26.81;101770.41;5157086;27;20043;-53
2021/06/10 09:55:53;;;;;;;1.30;1.20;;;28.10;40.80;;;31.71;26.88;101772.25;5157103;27;20055;-53
2021/06/10 09:58:39;;;;;;;1.30;1.20;;;28.10;40.80;;;31.69;27.04;101769.72;5156826;27;20086;-55
2021/06/10 10:01:16;;;;;;;2.13;1.40;;;28.10;40.80;;;31.72;26.81;101772.09;5157080;27;20506;-54
2021/06/10 10:03:45;;;;;;;1.20;1.10;;;28.10;40.80;;;31.69;26.82;101775.13;5157029;27;20043;-52
2021/06/10 10:06:25;;;;;;;1.48;1.20;;;28.10;40.80;;;31.66;26.87;101764.59;5157060;27;20574;-50
2021/06/10 10:09:02;;;;;;;1.30;1.20;;;28.10;40.80;;;31.67;26.99;101763.56;5156207;27;20126;-53
2021/06/10 10:11:32;;;;;;;1.30;1.20;;;28.10;40.80;;;31.64;27.07;101758.44;5157435;27;20064;-52
2021/06/10 10:14:00;;;;;;;1.15;1.10;;;28.10;40.80;;;31.70;26.77;101767.84;5138422;27;20395;-52
2021/06/10 10:16:37;;;;;;;1.30;1.20;;;28.10;40.80;;;31.65;26.80;101768.28;5156511;27;20051;-51
2021/06/10 10:19:04;;;;;;;2.35;1.10;;;28.10;40.80;;;31.71;26.76;101773.13;5157337;27;20046;-52